Roessleville, New York
Current Conditions -  °F | °C
As of 1:51 AM on Wednesday 22 Oct 2014 (Local Time) from KALB Reporting Station
Overcast Overcast  
Wind Chill: 50°   Ceiling: 900
Heat Index: 50°   Visibility: 9mi
Dew Point: 47°   Wind: 12mph
Humidity: 89%   Direction: 10°N
Pressure: 30.01"   Gusts: NA
Location:  42.7187°N, 73.8257°W
Report Text: KALB 220551Z 01010KT 9SM OVC009 10/08 A3001 RMK AO2 SLP162 60026 T01000083 10111 20100 58003
Loading
Personal Weather Stations






























Interactive Weather Map
Tropical Storm Tracking
New forecast layout! Learn more

10-Day Weather Forecast

Advertisements
Track Severe Weather on mobile